Terminal Aerodrome Forecast
Issued by NWS

Home | Current Version | Previous Version | Text Only | Print | Product List | Glossary Off
Versions: 1 2 3 4 5 6 7 8 9 10 11 12 13 14 15 16 17 18 19 20 21 22

175
FTUS43 KDLH 232339
TAFBRD
TAF
KBRD 232339Z 2400/2424 19007KT P6SM SKC
     FM240200 19008KT P6SM SKC WS020/22035KT
     FM241300 24009KT P6SM OVC060 WS020/29040KT
     FM242200 29013G20KT P6SM SCT015 BKN030=

USA.gov is the U.S. government's official web portal to all federal, state and local government web resources and services.